sensor_id;sensor_type;location;lat;lon;timestamp;P1;durP1;ratioP1;P2;durP2;ratioP2
2898;SDS011;1459;50.864;6.438;2022-08-11T00:01:07;5.73;;;3.23;;
2898;SDS011;1459;50.864;6.438;2022-08-11T00:03:35;4.13;;;3.10;;
2898;SDS011;1459;50.864;6.438;2022-08-11T00:06:08;5.65;;;3.47;;
2898;SDS011;1459;50.864;6.438;2022-08-11T00:08:38;7.47;;;3.17;;
2898;SDS011;1459;50.864;6.438;2022-08-11T00:11:06;11.23;;;3.83;;
2898;SDS011;1459;50.864;6.438;2022-08-11T00:13:35;6.57;;;4.10;;
2898;SDS011;1459;50.864;6.438;2022-08-11T00:16:02;5.53;;;3.30;;
2898;SDS011;1459;50.864;6.438;2022-08-11T00:18:39;4.77;;;3.10;;
2898;SDS011;1459;50.864;6.438;2022-08-11T00:21:06;7.25;;;3.63;;
2898;SDS011;1459;50.864;6.438;2022-08-11T00:23:38;8.15;;;3.40;;
2898;SDS011;1459;50.864;6.438;2022-08-11T00:26:07;5.90;;;3.30;;
2898;SDS011;1459;50.864;6.438;2022-08-11T00:28:35;4.50;;;3.15;;
2898;SDS011;1459;50.864;6.438;2022-08-11T00:31:03;7.03;;;3.70;;
2898;SDS011;1459;50.864;6.438;2022-08-11T00:33:32;3.40;;;3.08;;
2898;SDS011;1459;50.864;6.438;2022-08-11T00:36:01;8.27;;;4.22;;
2898;SDS011;1459;50.864;6.438;2022-08-11T00:38:31;5.38;;;3.65;;
2898;SDS011;1459;50.864;6.438;2022-08-11T00:41:00;7.75;;;4.07;;
2898;SDS011;1459;50.864;6.438;2022-08-11T00:43:37;6.07;;;3.92;;
2898;SDS011;1459;50.864;6.438;2022-08-11T00:46:10;5.05;;;3.67;;
2898;SDS011;1459;50.864;6.438;2022-08-11T00:48:39;3.67;;;3.38;;
2898;SDS011;1459;50.864;6.438;2022-08-11T00:51:12;4.55;;;3.58;;
2898;SDS011;1459;50.864;6.438;2022-08-11T00:53:44;6.55;;;3.95;;
2898;SDS011;1459;50.864;6.438;2022-08-11T00:56:15;4.28;;;3.88;;
2898;SDS011;1459;50.864;6.438;2022-08-11T00:58:55;3.88;;;3.50;;
2898;SDS011;1459;50.864;6.438;2022-08-11T01:01:33;4.10;;;3.20;;
2898;SDS011;1459;50.864;6.438;2022-08-11T01:04:16;4.63;;;3.58;;
2898;SDS011;1459;50.864;6.438;2022-08-11T01:06:51;9.10;;;3.90;;
2898;SDS011;1459;50.864;6.438;2022-08-11T01:12:29;6.78;;;3.60;;
2898;SDS011;1459;50.864;6.438;2022-08-11T01:39:31;5.03;;;4.53;;
2898;SDS011;1459;50.864;6.438;2022-08-11T01:45:46;5.38;;;4.88;;
2898;SDS011;1459;50.864;6.438;2022-08-11T01:48:21;7.40;;;5.15;;
2898;SDS011;1459;50.864;6.438;2022-08-11T01:51:02;10.77;;;5.70;;
2898;SDS011;1459;50.864;6.438;2022-08-11T01:53:38;6.65;;;5.88;;
2898;SDS011;1459;50.864;6.438;2022-08-11T01:56:25;8.85;;;4.85;;
2898;SDS011;1459;50.864;6.438;2022-08-11T01:58:59;7.65;;;4.55;;
2898;SDS011;1459;50.864;6.438;2022-08-11T02:01:41;5.80;;;5.20;;
2898;SDS011;1459;50.864;6.438;2022-08-11T02:04:23;8.20;;;5.70;;
2898;SDS011;1459;50.864;6.438;2022-08-11T02:07:07;6.35;;;4.75;;
2898;SDS011;1459;50.864;6.438;2022-08-11T02:10:01;5.57;;;5.07;;
2898;SDS011;1459;50.864;6.438;2022-08-11T02:12:56;5.93;;;5.20;;
2898;SDS011;1459;50.864;6.438;2022-08-11T02:15:33;8.07;;;4.88;;
2898;SDS011;1459;50.864;6.438;2022-08-11T02:18:04;6.20;;;4.90;;
2898;SDS011;1459;50.864;6.438;2022-08-11T02:20:41;6.97;;;5.30;;
2898;SDS011;1459;50.864;6.438;2022-08-11T02:23:35;6.28;;;5.68;;
2898;SDS011;1459;50.864;6.438;2022-08-11T02:26:10;13.55;;;6.10;;
2898;SDS011;1459;50.864;6.438;2022-08-11T02:28:50;7.68;;;5.45;;
2898;SDS011;1459;50.864;6.438;2022-08-11T02:31:23;8.48;;;6.32;;
2898;SDS011;1459;50.864;6.438;2022-08-11T02:34:12;8.85;;;5.55;;
2898;SDS011;1459;50.864;6.438;2022-08-11T02:36:43;7.40;;;5.60;;
2898;SDS011;1459;50.864;6.438;2022-08-11T02:39:15;8.27;;;5.53;;
2898;SDS011;1459;50.864;6.438;2022-08-11T02:41:49;6.85;;;6.15;;
2898;SDS011;1459;50.864;6.438;2022-08-11T02:44:43;6.28;;;5.40;;
2898;SDS011;1459;50.864;6.438;2022-08-11T02:47:30;6.82;;;5.90;;
2898;SDS011;1459;50.864;6.438;2022-08-11T02:50:11;6.00;;;5.43;;
2898;SDS011;1459;50.864;6.438;2022-08-11T02:52:46;6.38;;;5.45;;
2898;SDS011;1459;50.864;6.438;2022-08-11T02:55:26;9.82;;;5.32;;
2898;SDS011;1459;50.864;6.438;2022-08-11T02:58:00;6.35;;;5.75;;
2898;SDS011;1459;50.864;6.438;2022-08-11T03:00:49;9.43;;;6.78;;
2898;SDS011;1459;50.864;6.438;2022-08-11T03:03:18;10.65;;;6.50;;
2898;SDS011;1459;50.864;6.438;2022-08-11T03:05:55;10.73;;;7.15;;
2898;SDS011;1459;50.864;6.438;2022-08-11T03:08:43;12.48;;;7.47;;
2898;SDS011;1459;50.864;6.438;2022-08-11T03:11:19;7.72;;;6.10;;
2898;SDS011;1459;50.864;6.438;2022-08-11T03:14:14;9.60;;;6.40;;
2898;SDS011;1459;50.864;6.438;2022-08-11T03:17:09;8.65;;;6.50;;
2898;SDS011;1459;50.864;6.438;2022-08-11T03:19:43;8.43;;;6.97;;
2898;SDS011;1459;50.864;6.438;2022-08-11T03:22:18;8.70;;;6.65;;
2898;SDS011;1459;50.864;6.438;2022-08-11T03:24:55;9.40;;;7.30;;
2898;SDS011;1459;50.864;6.438;2022-08-11T03:30:14;10.30;;;7.60;;
2898;SDS011;1459;50.864;6.438;2022-08-11T03:32:47;10.63;;;6.93;;
2898;SDS011;1459;50.864;6.438;2022-08-11T03:35:57;7.72;;;6.38;;
2898;SDS011;1459;50.864;6.438;2022-08-11T03:38:41;7.75;;;6.97;;
2898;SDS011;1459;50.864;6.438;2022-08-11T03:41:22;6.18;;;5.57;;
2898;SDS011;1459;50.864;6.438;2022-08-11T03:44:31;11.20;;;6.82;;
2898;SDS011;1459;50.864;6.438;2022-08-11T03:47:16;10.13;;;6.28;;
2898;SDS011;1459;50.864;6.438;2022-08-11T03:49:59;7.30;;;6.60;;
2898;SDS011;1459;50.864;6.438;2022-08-11T03:52:36;8.55;;;6.80;;
2898;SDS011;1459;50.864;6.438;2022-08-11T03:55:14;8.55;;;6.93;;
2898;SDS011;1459;50.864;6.438;2022-08-11T03:58:08;7.75;;;6.55;;
2898;SDS011;1459;50.864;6.438;2022-08-11T04:10:34;7.22;;;6.53;;
2898;SDS011;1459;50.864;6.438;2022-08-11T04:16:46;6.80;;;5.70;;
2898;SDS011;1459;50.864;6.438;2022-08-11T04:22:37;9.57;;;5.85;;
2898;SDS011;1459;50.864;6.438;2022-08-11T04:25:52;9.80;;;5.95;;
2898;SDS011;1459;50.864;6.438;2022-08-11T04:28:41;8.52;;;6.30;;
2898;SDS011;1459;50.864;6.438;2022-08-11T04:31:23;6.80;;;5.88;;
2898;SDS011;1459;50.864;6.438;2022-08-11T04:34:20;9.48;;;6.63;;
2898;SDS011;1459;50.864;6.438;2022-08-11T04:37:14;11.25;;;6.00;;
2898;SDS011;1459;50.864;6.438;2022-08-11T04:46:25;7.70;;;6.55;;
2898;SDS011;1459;50.864;6.438;2022-08-11T04:49:17;6.93;;;6.22;;
2898;SDS011;1459;50.864;6.438;2022-08-11T04:55:42;8.13;;;6.10;;
2898;SDS011;1459;50.864;6.438;2022-08-11T04:58:46;10.07;;;6.35;;
2898;SDS011;1459;50.864;6.438;2022-08-11T05:01:39;7.10;;;5.90;;
2898;SDS011;1459;50.864;6.438;2022-08-11T05:04:34;7.18;;;5.88;;
2898;SDS011;1459;50.864;6.438;2022-08-11T05:10:44;10.55;;;6.53;;
2898;SDS011;1459;50.864;6.438;2022-08-11T05:13:24;9.95;;;6.22;;
2898;SDS011;1459;50.864;6.438;2022-08-11T05:16:14;13.93;;;6.57;;
2898;SDS011;1459;50.864;6.438;2022-08-11T05:19:02;9.90;;;5.60;;
2898;SDS011;1459;50.864;6.438;2022-08-11T05:21:47;15.38;;;6.05;;
2898;SDS011;1459;50.864;6.438;2022-08-11T05:24:37;8.38;;;6.40;;
2898;SDS011;1459;50.864;6.438;2022-08-11T05:27:29;7.25;;;5.10;;
2898;SDS011;1459;50.864;6.438;2022-08-11T05:30:18;7.70;;;4.78;;
2898;SDS011;1459;50.864;6.438;2022-08-11T05:33:06;6.85;;;5.18;;
2898;SDS011;1459;50.864;6.438;2022-08-11T05:35:57;6.57;;;5.60;;
2898;SDS011;1459;50.864;6.438;2022-08-11T05:38:32;7.88;;;4.80;;
2898;SDS011;1459;50.864;6.438;2022-08-11T05:41:19;8.82;;;5.22;;
2898;SDS011;1459;50.864;6.438;2022-08-11T05:44:06;6.68;;;4.47;;
2898;SDS011;1459;50.864;6.438;2022-08-11T05:46:54;8.10;;;4.35;;
2898;SDS011;1459;50.864;6.438;2022-08-11T05:49:41;7.63;;;4.40;;
2898;SDS011;1459;50.864;6.438;2022-08-11T05:52:32;7.93;;;5.53;;
2898;SDS011;1459;50.864;6.438;2022-08-11T05:55:18;5.65;;;4.30;;
2898;SDS011;1459;50.864;6.438;2022-08-11T05:58:03;8.43;;;4.55;;
2898;SDS011;1459;50.864;6.438;2022-08-11T06:00:40;14.55;;;5.25;;
2898;SDS011;1459;50.864;6.438;2022-08-11T06:03:07;11.23;;;4.63;;
2898;SDS011;1459;50.864;6.438;2022-08-11T06:05:39;7.63;;;4.30;;
2898;SDS011;1459;50.864;6.438;2022-08-11T06:08:07;9.60;;;5.13;;
2898;SDS011;1459;50.864;6.438;2022-08-11T06:10:37;10.60;;;4.80;;
2898;SDS011;1459;50.864;6.438;2022-08-11T06:13:07;8.70;;;4.93;;
2898;SDS011;1459;50.864;6.438;2022-08-11T06:15:42;7.15;;;4.15;;
2898;SDS011;1459;50.864;6.438;2022-08-11T06:18:10;5.38;;;4.88;;
2898;SDS011;1459;50.864;6.438;2022-08-11T06:20:46;11.50;;;4.72;;
2898;SDS011;1459;50.864;6.438;2022-08-11T06:23:14;6.30;;;3.92;;
2898;SDS011;1459;50.864;6.438;2022-08-11T06:25:44;5.10;;;3.85;;
2898;SDS011;1459;50.864;6.438;2022-08-11T06:28:12;6.32;;;3.95;;
2898;SDS011;1459;50.864;6.438;2022-08-11T06:30:43;7.68;;;3.50;;
2898;SDS011;1459;50.864;6.438;2022-08-11T06:33:12;6.07;;;4.05;;
2898;SDS011;1459;50.864;6.438;2022-08-11T06:35:47;3.83;;;3.40;;
2898;SDS011;1459;50.864;6.438;2022-08-11T06:38:22;5.25;;;3.85;;
2898;SDS011;1459;50.864;6.438;2022-08-11T06:41:02;4.57;;;3.90;;
2898;SDS011;1459;50.864;6.438;2022-08-11T06:43:59;6.05;;;4.40;;
2898;SDS011;1459;50.864;6.438;2022-08-11T06:46:35;5.20;;;3.80;;
2898;SDS011;1459;50.864;6.438;2022-08-11T06:49:05;3.80;;;3.50;;
2898;SDS011;1459;50.864;6.438;2022-08-11T06:51:57;5.10;;;4.00;;
2898;SDS011;1459;50.864;6.438;2022-08-11T06:54:25;5.13;;;3.57;;
2898;SDS011;1459;50.864;6.438;2022-08-11T06:56:54;5.37;;;3.77;;
2898;SDS011;1459;50.864;6.438;2022-08-11T06:59:39;6.13;;;3.63;;
2898;SDS011;1459;50.864;6.438;2022-08-11T07:02:26;5.67;;;4.23;;
2898;SDS011;1459;50.864;6.438;2022-08-11T07:04:58;5.57;;;3.90;;
2898;SDS011;1459;50.864;6.438;2022-08-11T07:07:36;4.95;;;3.90;;
2898;SDS011;1459;50.864;6.438;2022-08-11T07:11:00;4.00;;;3.57;;
2898;SDS011;1459;50.864;6.438;2022-08-11T07:14:00;7.33;;;3.80;;
2898;SDS011;1459;50.864;6.438;2022-08-11T07:16:46;4.75;;;3.47;;
2898;SDS011;1459;50.864;6.438;2022-08-11T07:19:15;5.87;;;3.97;;
2898;SDS011;1459;50.864;6.438;2022-08-11T07:22:04;4.15;;;3.75;;
2898;SDS011;1459;50.864;6.438;2022-08-11T07:24:53;6.17;;;4.13;;
2898;SDS011;1459;50.864;6.438;2022-08-11T07:27:42;5.53;;;3.63;;
2898;SDS011;1459;50.864;6.438;2022-08-11T07:30:28;4.70;;;3.17;;
2898;SDS011;1459;50.864;6.438;2022-08-11T07:32:58;5.60;;;3.50;;
2898;SDS011;1459;50.864;6.438;2022-08-11T07:35:30;6.50;;;3.60;;
2898;SDS011;1459;50.864;6.438;2022-08-11T07:38:00;6.73;;;3.63;;
2898;SDS011;1459;50.864;6.438;2022-08-11T07:40:31;5.30;;;3.90;;
2898;SDS011;1459;50.864;6.438;2022-08-11T07:42:59;4.70;;;3.10;;
2898;SDS011;1459;50.864;6.438;2022-08-11T07:45:28;4.83;;;3.13;;
2898;SDS011;1459;50.864;6.438;2022-08-11T07:48:14;5.20;;;3.70;;
2898;SDS011;1459;50.864;6.438;2022-08-11T07:50:59;5.07;;;3.70;;
2898;SDS011;1459;50.864;6.438;2022-08-11T07:53:44;3.80;;;3.07;;
2898;SDS011;1459;50.864;6.438;2022-08-11T07:56:13;5.97;;;3.50;;
2898;SDS011;1459;50.864;6.438;2022-08-11T07:58:43;3.63;;;3.33;;
2898;SDS011;1459;50.864;6.438;2022-08-11T08:01:29;5.23;;;3.33;;
2898;SDS011;1459;50.864;6.438;2022-08-11T08:04:14;5.53;;;3.33;;
2898;SDS011;1459;50.864;6.438;2022-08-11T08:07:01;5.70;;;3.27;;
2898;SDS011;1459;50.864;6.438;2022-08-11T08:09:47;4.47;;;3.30;;
2898;SDS011;1459;50.864;6.438;2022-08-11T08:12:33;4.30;;;3.03;;
2898;SDS011;1459;50.864;6.438;2022-08-11T08:15:19;4.10;;;3.20;;
2898;SDS011;1459;50.864;6.438;2022-08-11T08:18:05;4.23;;;3.80;;
2898;SDS011;1459;50.864;6.438;2022-08-11T08:20:35;4.10;;;3.17;;
2898;SDS011;1459;50.864;6.438;2022-08-11T08:23:04;4.27;;;3.10;;
2898;SDS011;1459;50.864;6.438;2022-08-11T08:25:33;3.57;;;3.27;;
2898;SDS011;1459;50.864;6.438;2022-08-11T08:28:06;5.95;;;3.30;;
2898;SDS011;1459;50.864;6.438;2022-08-11T08:30:35;4.07;;;3.03;;
2898;SDS011;1459;50.864;6.438;2022-08-11T08:33:16;5.37;;;2.83;;
2898;SDS011;1459;50.864;6.438;2022-08-11T08:35:46;3.70;;;3.40;;
2898;SDS011;1459;50.864;6.438;2022-08-11T08:38:16;5.40;;;3.73;;
2898;SDS011;1459;50.864;6.438;2022-08-11T08:40:44;8.67;;;3.40;;
2898;SDS011;1459;50.864;6.438;2022-08-11T08:43:15;3.43;;;3.00;;
2898;SDS011;1459;50.864;6.438;2022-08-11T08:45:43;4.37;;;2.97;;
2898;SDS011;1459;50.864;6.438;2022-08-11T08:48:12;7.43;;;3.60;;
2898;SDS011;1459;50.864;6.438;2022-08-11T08:50:44;3.93;;;2.90;;
2898;SDS011;1459;50.864;6.438;2022-08-11T08:53:35;3.20;;;2.90;;
2898;SDS011;1459;50.864;6.438;2022-08-11T08:56:07;4.57;;;3.40;;
2898;SDS011;1459;50.864;6.438;2022-08-11T08:58:37;4.60;;;3.70;;
2898;SDS011;1459;50.864;6.438;2022-08-11T09:01:07;5.33;;;3.30;;
2898;SDS011;1459;50.864;6.438;2022-08-11T09:03:38;5.00;;;3.43;;
2898;SDS011;1459;50.864;6.438;2022-08-11T09:06:06;7.03;;;3.23;;
2898;SDS011;1459;50.864;6.438;2022-08-11T09:08:33;4.93;;;3.37;;
2898;SDS011;1459;50.864;6.438;2022-08-11T09:11:01;4.13;;;3.00;;
2898;SDS011;1459;50.864;6.438;2022-08-11T09:13:48;5.67;;;3.30;;
2898;SDS011;1459;50.864;6.438;2022-08-11T09:16:17;2.97;;;2.70;;
2898;SDS011;1459;50.864;6.438;2022-08-11T09:18:44;3.67;;;3.37;;
2898;SDS011;1459;50.864;6.438;2022-08-11T09:21:14;6.63;;;2.77;;
2898;SDS011;1459;50.864;6.438;2022-08-11T09:23:46;5.50;;;2.60;;
2898;SDS011;1459;50.864;6.438;2022-08-11T09:26:32;4.70;;;3.27;;
2898;SDS011;1459;50.864;6.438;2022-08-11T09:29:26;2.83;;;2.60;;
2898;SDS011;1459;50.864;6.438;2022-08-11T09:31:54;5.43;;;3.07;;
2898;SDS011;1459;50.864;6.438;2022-08-11T09:34:23;5.03;;;2.67;;
2898;SDS011;1459;50.864;6.438;2022-08-11T09:36:51;3.30;;;3.00;;
2898;SDS011;1459;50.864;6.438;2022-08-11T09:39:37;8.17;;;2.93;;
2898;SDS011;1459;50.864;6.438;2022-08-11T09:42:22;5.60;;;3.10;;
2898;SDS011;1459;50.864;6.438;2022-08-11T09:45:15;3.60;;;2.93;;
2898;SDS011;1459;50.864;6.438;2022-08-11T09:47:42;5.37;;;3.00;;
2898;SDS011;1459;50.864;6.438;2022-08-11T09:50:10;3.50;;;2.87;;
2898;SDS011;1459;50.864;6.438;2022-08-11T09:52:41;4.27;;;2.80;;
2898;SDS011;1459;50.864;6.438;2022-08-11T09:55:12;3.63;;;2.40;;
2898;SDS011;1459;50.864;6.438;2022-08-11T09:57:44;5.80;;;2.80;;
2898;SDS011;1459;50.864;6.438;2022-08-11T10:00:42;6.50;;;3.37;;
2898;SDS011;1459;50.864;6.438;2022-08-11T10:03:11;2.90;;;2.60;;
2898;SDS011;1459;50.864;6.438;2022-08-11T10:05:42;4.70;;;2.73;;
2898;SDS011;1459;50.864;6.438;2022-08-11T10:08:30;3.83;;;2.33;;
2898;SDS011;1459;50.864;6.438;2022-08-11T10:10:58;2.67;;;2.47;;
2898;SDS011;1459;50.864;6.438;2022-08-11T10:13:29;4.67;;;2.97;;
2898;SDS011;1459;50.864;6.438;2022-08-11T10:16:20;2.90;;;2.67;;
2898;SDS011;1459;50.864;6.438;2022-08-11T10:18:51;4.77;;;2.50;;
2898;SDS011;1459;50.864;6.438;2022-08-11T10:21:24;6.00;;;2.40;;
2898;SDS011;1459;50.864;6.438;2022-08-11T10:23:55;2.50;;;2.30;;
2898;SDS011;1459;50.864;6.438;2022-08-11T10:26:41;3.43;;;2.23;;
2898;SDS011;1459;50.864;6.438;2022-08-11T10:29:18;2.80;;;2.40;;
2898;SDS011;1459;50.864;6.438;2022-08-11T10:32:05;3.10;;;2.77;;
2898;SDS011;1459;50.864;6.438;2022-08-11T10:34:50;2.70;;;2.23;;
2898;SDS011;1459;50.864;6.438;2022-08-11T10:37:19;2.60;;;2.40;;
2898;SDS011;1459;50.864;6.438;2022-08-11T10:39:48;4.47;;;2.60;;
2898;SDS011;1459;50.864;6.438;2022-08-11T10:42:16;3.33;;;2.60;;
2898;SDS011;1459;50.864;6.438;2022-08-11T10:45:03;4.50;;;2.63;;
2898;SDS011;1459;50.864;6.438;2022-08-11T10:47:55;3.37;;;2.43;;
2898;SDS011;1459;50.864;6.438;2022-08-11T10:50:22;3.17;;;2.10;;
2898;SDS011;1459;50.864;6.438;2022-08-11T10:53:07;3.93;;;2.63;;
2898;SDS011;1459;50.864;6.438;2022-08-11T10:55:52;2.87;;;2.13;;
2898;SDS011;1459;50.864;6.438;2022-08-11T10:58:38;3.57;;;2.60;;
2898;SDS011;1459;50.864;6.438;2022-08-11T11:01:13;6.27;;;2.60;;
2898;SDS011;1459;50.864;6.438;2022-08-11T11:03:43;3.13;;;2.70;;
2898;SDS011;1459;50.864;6.438;2022-08-11T11:06:15;3.30;;;2.83;;
2898;SDS011;1459;50.864;6.438;2022-08-11T11:08:51;3.73;;;2.63;;
2898;SDS011;1459;50.864;6.438;2022-08-11T11:11:23;2.50;;;2.30;;
2898;SDS011;1459;50.864;6.438;2022-08-11T11:14:14;3.07;;;2.60;;
2898;SDS011;1459;50.864;6.438;2022-08-11T11:17:01;5.50;;;3.10;;
2898;SDS011;1459;50.864;6.438;2022-08-11T11:19:50;3.33;;;2.80;;
2898;SDS011;1459;50.864;6.438;2022-08-11T11:22:21;4.27;;;2.80;;
2898;SDS011;1459;50.864;6.438;2022-08-11T11:25:12;2.97;;;2.77;;
2898;SDS011;1459;50.864;6.438;2022-08-11T11:27:53;3.90;;;2.90;;
2898;SDS011;1459;50.864;6.438;2022-08-11T11:30:31;2.77;;;2.57;;
2898;SDS011;1459;50.864;6.438;2022-08-11T11:33:05;5.13;;;2.13;;
2898;SDS011;1459;50.864;6.438;2022-08-11T11:35:42;4.10;;;2.63;;
2898;SDS011;1459;50.864;6.438;2022-08-11T11:38:21;5.33;;;2.60;;
2898;SDS011;1459;50.864;6.438;2022-08-11T11:40:48;3.33;;;2.90;;
2898;SDS011;1459;50.864;6.438;2022-08-11T11:43:30;4.30;;;3.30;;
2898;SDS011;1459;50.864;6.438;2022-08-11T11:46:00;5.57;;;3.20;;
2898;SDS011;1459;50.864;6.438;2022-08-11T11:48:28;3.17;;;2.80;;
2898;SDS011;1459;50.864;6.438;2022-08-11T11:50:58;6.20;;;2.70;;
2898;SDS011;1459;50.864;6.438;2022-08-11T11:53:25;3.70;;;2.53;;
2898;SDS011;1459;50.864;6.438;2022-08-11T11:55:53;3.77;;;2.80;;
2898;SDS011;1459;50.864;6.438;2022-08-11T11:58:21;5.30;;;3.33;;
2898;SDS011;1459;50.864;6.438;2022-08-11T12:01:06;5.70;;;2.97;;
2898;SDS011;1459;50.864;6.438;2022-08-11T12:03:44;2.60;;;2.37;;
2898;SDS011;1459;50.864;6.438;2022-08-11T12:06:15;6.57;;;3.07;;
2898;SDS011;1459;50.864;6.438;2022-08-11T12:08:47;5.33;;;3.13;;
2898;SDS011;1459;50.864;6.438;2022-08-11T12:11:16;3.00;;;2.80;;
2898;SDS011;1459;50.864;6.438;2022-08-11T12:14:04;4.67;;;2.80;;
2898;SDS011;1459;50.864;6.438;2022-08-11T12:16:34;5.23;;;2.60;;
2898;SDS011;1459;50.864;6.438;2022-08-11T12:19:03;3.93;;;3.07;;
2898;SDS011;1459;50.864;6.438;2022-08-11T12:21:34;3.57;;;3.27;;
2898;SDS011;1459;50.864;6.438;2022-08-11T12:24:03;3.03;;;2.73;;
2898;SDS011;1459;50.864;6.438;2022-08-11T12:26:48;4.30;;;2.63;;
2898;SDS011;1459;50.864;6.438;2022-08-11T12:29:32;6.90;;;2.60;;
2898;SDS011;1459;50.864;6.438;2022-08-11T12:32:00;4.03;;;3.17;;
2898;SDS011;1459;50.864;6.438;2022-08-11T12:34:27;4.73;;;3.00;;
2898;SDS011;1459;50.864;6.438;2022-08-11T12:36:56;4.27;;;2.90;;
2898;SDS011;1459;50.864;6.438;2022-08-11T12:39:25;3.13;;;2.47;;
2898;SDS011;1459;50.864;6.438;2022-08-11T12:42:15;3.97;;;2.80;;
2898;SDS011;1459;50.864;6.438;2022-08-11T12:45:01;3.33;;;2.90;;
2898;SDS011;1459;50.864;6.438;2022-08-11T12:47:49;4.73;;;3.30;;
2898;SDS011;1459;50.864;6.438;2022-08-11T12:50:35;3.40;;;3.10;;
2898;SDS011;1459;50.864;6.438;2022-08-11T12:53:21;7.20;;;3.07;;
2898;SDS011;1459;50.864;6.438;2022-08-11T12:55:51;8.00;;;2.80;;
2898;SDS011;1459;50.864;6.438;2022-08-11T12:58:38;4.67;;;3.10;;
2898;SDS011;1459;50.864;6.438;2022-08-11T13:01:07;4.90;;;3.30;;
2898;SDS011;1459;50.864;6.438;2022-08-11T13:03:52;4.30;;;3.23;;
2898;SDS011;1459;50.864;6.438;2022-08-11T13:06:37;5.40;;;3.00;;
2898;SDS011;1459;50.864;6.438;2022-08-11T13:09:06;5.10;;;2.90;;
2898;SDS011;1459;50.864;6.438;2022-08-11T13:11:36;3.27;;;2.97;;
2898;SDS011;1459;50.864;6.438;2022-08-11T13:14:21;6.13;;;2.50;;
2898;SDS011;1459;50.864;6.438;2022-08-11T13:16:49;7.20;;;2.90;;
2898;SDS011;1459;50.864;6.438;2022-08-11T13:19:34;4.60;;;2.60;;
2898;SDS011;1459;50.864;6.438;2022-08-11T13:22:01;6.27;;;2.90;;
2898;SDS011;1459;50.864;6.438;2022-08-11T13:24:32;4.50;;;2.97;;
2898;SDS011;1459;50.864;6.438;2022-08-11T13:27:01;3.00;;;2.80;;
2898;SDS011;1459;50.864;6.438;2022-08-11T13:29:28;4.93;;;3.07;;
2898;SDS011;1459;50.864;6.438;2022-08-11T13:32:00;5.23;;;2.60;;
2898;SDS011;1459;50.864;6.438;2022-08-11T13:34:28;6.73;;;2.67;;
2898;SDS011;1459;50.864;6.438;2022-08-11T13:36:58;5.50;;;2.43;;
2898;SDS011;1459;50.864;6.438;2022-08-11T13:39:29;5.80;;;3.20;;
2898;SDS011;1459;50.864;6.438;2022-08-11T13:42:00;5.30;;;2.80;;
2898;SDS011;1459;50.864;6.438;2022-08-11T13:44:28;5.10;;;2.80;;
2898;SDS011;1459;50.864;6.438;2022-08-11T13:46:58;6.57;;;3.00;;
2898;SDS011;1459;50.864;6.438;2022-08-11T13:49:28;4.40;;;3.07;;
2898;SDS011;1459;50.864;6.438;2022-08-11T13:51:56;4.17;;;3.30;;
2898;SDS011;1459;50.864;6.438;2022-08-11T13:54:25;4.93;;;3.10;;
2898;SDS011;1459;50.864;6.438;2022-08-11T13:56:56;4.33;;;3.07;;
2898;SDS011;1459;50.864;6.438;2022-08-11T13:59:27;4.80;;;2.83;;
2898;SDS011;1459;50.864;6.438;2022-08-11T14:01:55;4.23;;;2.67;;
2898;SDS011;1459;50.864;6.438;2022-08-11T14:04:27;3.70;;;2.70;;
2898;SDS011;1459;50.864;6.438;2022-08-11T14:06:57;4.20;;;2.80;;
2898;SDS011;1459;50.864;6.438;2022-08-11T14:09:29;5.83;;;3.07;;
2898;SDS011;1459;50.864;6.438;2022-08-11T14:12:09;6.70;;;3.00;;
2898;SDS011;1459;50.864;6.438;2022-08-11T14:14:58;5.57;;;2.97;;
2898;SDS011;1459;50.864;6.438;2022-08-11T14:17:27;3.20;;;2.90;;
2898;SDS011;1459;50.864;6.438;2022-08-11T14:19:57;3.60;;;3.03;;
2898;SDS011;1459;50.864;6.438;2022-08-11T14:22:30;4.33;;;2.63;;
2898;SDS011;1459;50.864;6.438;2022-08-11T14:24:57;3.20;;;2.47;;
2898;SDS011;1459;50.864;6.438;2022-08-11T14:27:26;6.20;;;2.70;;
2898;SDS011;1459;50.864;6.438;2022-08-11T14:29:54;3.73;;;2.73;;
2898;SDS011;1459;50.864;6.438;2022-08-11T14:32:22;3.80;;;3.30;;
2898;SDS011;1459;50.864;6.438;2022-08-11T14:34:51;3.97;;;2.87;;
2898;SDS011;1459;50.864;6.438;2022-08-11T14:37:19;3.20;;;2.70;;
2898;SDS011;1459;50.864;6.438;2022-08-11T14:39:49;3.20;;;2.67;;
2898;SDS011;1459;50.864;6.438;2022-08-11T14:42:19;3.10;;;2.73;;
2898;SDS011;1459;50.864;6.438;2022-08-11T14:45:06;3.67;;;2.90;;
2898;SDS011;1459;50.864;6.438;2022-08-11T14:47:54;2.60;;;2.40;;
2898;SDS011;1459;50.864;6.438;2022-08-11T14:50:23;3.90;;;2.60;;
2898;SDS011;1459;50.864;6.438;2022-08-11T14:52:59;3.60;;;2.70;;
2898;SDS011;1459;50.864;6.438;2022-08-11T14:55:28;4.70;;;2.80;;
2898;SDS011;1459;50.864;6.438;2022-08-11T14:58:15;5.13;;;2.80;;
2898;SDS011;1459;50.864;6.438;2022-08-11T15:00:44;5.13;;;2.20;;
2898;SDS011;1459;50.864;6.438;2022-08-11T15:03:12;3.13;;;2.50;;
2898;SDS011;1459;50.864;6.438;2022-08-11T15:05:49;5.20;;;2.50;;
2898;SDS011;1459;50.864;6.438;2022-08-11T15:08:18;9.37;;;2.70;;
2898;SDS011;1459;50.864;6.438;2022-08-11T15:11:06;2.90;;;2.10;;
2898;SDS011;1459;50.864;6.438;2022-08-11T15:13:54;3.10;;;2.53;;
2898;SDS011;1459;50.864;6.438;2022-08-11T15:16:23;2.60;;;2.10;;
2898;SDS011;1459;50.864;6.438;2022-08-11T15:19:08;2.87;;;2.27;;
2898;SDS011;1459;50.864;6.438;2022-08-11T15:21:36;2.97;;;2.50;;
2898;SDS011;1459;50.864;6.438;2022-08-11T15:24:20;6.90;;;2.50;;
2898;SDS011;1459;50.864;6.438;2022-08-11T15:26:48;1.70;;;1.60;;
2898;SDS011;1459;50.864;6.438;2022-08-11T15:29:33;4.37;;;2.80;;
2898;SDS011;1459;50.864;6.438;2022-08-11T15:32:20;3.00;;;2.40;;
2898;SDS011;1459;50.864;6.438;2022-08-11T15:35:06;3.97;;;2.27;;
2898;SDS011;1459;50.864;6.438;2022-08-11T15:37:51;2.50;;;2.07;;
2898;SDS011;1459;50.864;6.438;2022-08-11T15:40:22;3.00;;;2.07;;
2898;SDS011;1459;50.864;6.438;2022-08-11T15:43:09;2.80;;;2.13;;
2898;SDS011;1459;50.864;6.438;2022-08-11T15:45:55;2.67;;;2.40;;
2898;SDS011;1459;50.864;6.438;2022-08-11T15:48:33;2.97;;;2.67;;
2898;SDS011;1459;50.864;6.438;2022-08-11T15:51:04;2.60;;;2.23;;
2898;SDS011;1459;50.864;6.438;2022-08-11T15:53:34;3.00;;;2.07;;
2898;SDS011;1459;50.864;6.438;2022-08-11T15:56:05;3.20;;;1.90;;
2898;SDS011;1459;50.864;6.438;2022-08-11T15:58:33;2.40;;;2.10;;
2898;SDS011;1459;50.864;6.438;2022-08-11T16:01:21;2.10;;;1.90;;
2898;SDS011;1459;50.864;6.438;2022-08-11T16:04:09;2.50;;;2.23;;
2898;SDS011;1459;50.864;6.438;2022-08-11T16:09:29;3.53;;;2.03;;
2898;SDS011;1459;50.864;6.438;2022-08-11T16:11:59;3.30;;;1.87;;
2898;SDS011;1459;50.864;6.438;2022-08-11T16:14:29;2.40;;;2.00;;
2898;SDS011;1459;50.864;6.438;2022-08-11T16:17:14;4.17;;;2.73;;
2898;SDS011;1459;50.864;6.438;2022-08-11T16:19:44;2.43;;;2.23;;
2898;SDS011;1459;50.864;6.438;2022-08-11T16:22:12;2.20;;;1.90;;
2898;SDS011;1459;50.864;6.438;2022-08-11T16:24:43;2.60;;;2.33;;
2898;SDS011;1459;50.864;6.438;2022-08-11T16:27:11;3.33;;;2.37;;
2898;SDS011;1459;50.864;6.438;2022-08-11T16:29:39;2.47;;;2.07;;
2898;SDS011;1459;50.864;6.438;2022-08-11T16:32:07;4.93;;;2.77;;
2898;SDS011;1459;50.864;6.438;2022-08-11T16:34:45;4.60;;;3.43;;
2898;SDS011;1459;50.864;6.438;2022-08-11T16:37:32;3.00;;;2.33;;
2898;SDS011;1459;50.864;6.438;2022-08-11T16:40:18;3.30;;;2.10;;
2898;SDS011;1459;50.864;6.438;2022-08-11T16:42:47;2.70;;;2.50;;
2898;SDS011;1459;50.864;6.438;2022-08-11T16:45:31;4.60;;;2.30;;
2898;SDS011;1459;50.864;6.438;2022-08-11T16:48:17;4.97;;;2.70;;
2898;SDS011;1459;50.864;6.438;2022-08-11T16:50:46;2.63;;;2.43;;
2898;SDS011;1459;50.864;6.438;2022-08-11T16:53:13;3.40;;;2.80;;
2898;SDS011;1459;50.864;6.438;2022-08-11T16:55:41;3.20;;;2.50;;
2898;SDS011;1459;50.864;6.438;2022-08-11T16:58:08;6.43;;;2.60;;
2898;SDS011;1459;50.864;6.438;2022-08-11T17:00:54;3.20;;;2.90;;
2898;SDS011;1459;50.864;6.438;2022-08-11T17:03:23;4.30;;;3.10;;
2898;SDS011;1459;50.864;6.438;2022-08-11T17:06:10;3.80;;;3.00;;
2898;SDS011;1459;50.864;6.438;2022-08-11T17:08:55;6.60;;;3.20;;
2898;SDS011;1459;50.864;6.438;2022-08-11T17:11:43;3.53;;;2.57;;
2898;SDS011;1459;50.864;6.438;2022-08-11T17:17:11;4.90;;;3.40;;
2898;SDS011;1459;50.864;6.438;2022-08-11T17:19:40;3.80;;;2.77;;
2898;SDS011;1459;50.864;6.438;2022-08-11T17:22:10;4.03;;;2.47;;
2898;SDS011;1459;50.864;6.438;2022-08-11T17:24:54;4.40;;;2.60;;
2898;SDS011;1459;50.864;6.438;2022-08-11T17:27:22;5.80;;;2.73;;